createdAt,value
2022-12-25T00:03:11.607Z,98988.78
2022-12-25T00:08:18.003Z,99000.34
2022-12-25T00:13:25.533Z,98998.72
2022-12-25T00:18:30.968Z,98984.97
2022-12-25T00:23:38.784Z,98993.72
2022-12-25T00:28:46.617Z,99004.00
2022-12-25T00:33:52.789Z,99011.66
2022-12-25T00:38:57.745Z,99005.13
2022-12-25T00:44:07.015Z,99005.84
2022-12-25T00:49:12.166Z,98992.91
2022-12-25T00:54:17.104Z,98998.47
2022-12-25T00:59:25.223Z,98994.53
2022-12-25T01:04:30.246Z,98988.28
2022-12-25T01:09:48.603Z,98987.22
2022-12-25T01:14:56.247Z,99003.59
2022-12-25T01:20:01.323Z,99000.16
2022-12-25T01:25:07.243Z,99000.41
2022-12-25T01:30:15.646Z,98992.69
2022-12-25T01:35:20.749Z,98993.44
2022-12-25T01:40:28.320Z,99003.66
2022-12-25T01:45:48.614Z,99017.63
2022-12-25T01:50:58.597Z,99022.69
2022-12-25T01:56:09.033Z,99032.44
2022-12-25T02:01:17.834Z,99036.50
2022-12-25T02:06:24.881Z,99028.47
2022-12-25T02:11:42.539Z,99038.84
2022-12-25T02:16:57.714Z,99030.34
2022-12-25T02:22:15.468Z,99029.28
2022-12-25T02:27:31.196Z,99030.94
2022-12-25T02:32:46.931Z,99041.38
2022-12-25T02:37:58.059Z,99039.63
2022-12-25T02:43:18.910Z,99042.69
2022-12-25T02:48:43.517Z,99041.19
2022-12-25T02:54:02.611Z,99044.88
2022-12-25T02:59:21.341Z,99051.81
2022-12-25T03:04:43.006Z,99058.19
2022-12-25T03:10:06.442Z,99055.59
2022-12-25T03:15:27.067Z,99042.75
2022-12-25T03:20:49.222Z,99034.06
2022-12-25T03:26:06.568Z,99029.78
2022-12-25T03:31:18.204Z,99053.28
2022-12-25T03:36:36.245Z,99044.22
2022-12-25T03:41:59.202Z,99036.22
2022-12-25T03:47:34.225Z,99052.75
2022-12-25T03:52:55.514Z,99050.53
2022-12-25T03:58:14.251Z,99058.06
2022-12-25T04:03:31.731Z,99070.59
2022-12-25T04:08:51.568Z,99084.00
2022-12-25T04:14:09.096Z,99089.81
2022-12-25T04:19:26.473Z,99087.19
2022-12-25T04:24:47.635Z,99104.19
2022-12-25T04:30:04.918Z,99090.00
2022-12-25T04:35:22.836Z,99090.50
2022-12-25T04:40:30.384Z,99088.72
2022-12-25T04:45:35.276Z,99094.84
2022-12-25T04:50:40.189Z,99084.91
2022-12-25T04:55:47.796Z,99083.28
2022-12-25T05:00:53.073Z,99094.25
2022-12-25T05:05:57.949Z,99093.34
2022-12-25T05:11:08.996Z,99106.00
2022-12-25T05:16:17.571Z,99103.94
2022-12-25T05:21:23.297Z,99112.53
2022-12-25T05:26:30.975Z,99097.16
2022-12-25T05:31:38.080Z,99097.34
2022-12-25T05:36:43.039Z,99089.06
2022-12-25T05:41:50.620Z,99096.22
2022-12-25T05:46:55.635Z,99111.75
2022-12-25T05:52:00.556Z,99110.16
2022-12-25T05:57:08.158Z,99106.28
2022-12-25T06:02:13.180Z,99104.91
2022-12-25T06:07:20.082Z,99098.38
2022-12-25T06:12:27.777Z,99100.03
2022-12-25T06:17:32.673Z,99101.44
2022-12-25T06:22:38.101Z,99097.28
2022-12-25T06:27:45.722Z,99098.84
2022-12-25T06:32:50.674Z,99096.22
2022-12-25T06:37:56.721Z,99084.53
2022-12-25T06:43:04.311Z,99070.47
2022-12-25T06:48:09.309Z,99094.03
2022-12-25T06:53:14.331Z,99094.97
2022-12-25T06:58:23.884Z,99095.44
2022-12-25T07:03:30.959Z,99099.50
2022-12-25T07:08:35.937Z,99113.03
2022-12-25T07:13:43.883Z,99103.16
2022-12-25T07:18:50.981Z,99097.59
2022-12-25T07:23:58.043Z,99108.50
2022-12-25T07:29:05.522Z,99112.94
2022-12-25T07:34:11.681Z,99116.75
2022-12-25T07:39:19.098Z,99124.09
2022-12-25T07:44:26.672Z,99127.28
2022-12-25T07:49:31.666Z,99125.53
2022-12-25T07:54:37.333Z,99129.19
2022-12-25T07:59:45.166Z,99141.78
2022-12-25T08:04:50.031Z,99138.91
2022-12-25T08:09:54.925Z,99134.13
2022-12-25T08:15:02.448Z,99139.34
2022-12-25T08:20:08.813Z,99145.63
2022-12-25T08:25:13.686Z,99142.81
2022-12-25T08:30:23.391Z,99142.38
2022-12-25T08:35:28.926Z,99139.69
2022-12-25T08:40:33.896Z,99140.38
2022-12-25T08:45:41.737Z,99139.13
2022-12-25T08:50:53.329Z,99139.78
2022-12-25T08:56:04.541Z,99128.81
2022-12-25T09:01:15.483Z,99121.78
2022-12-25T09:06:22.393Z,99099.22
2022-12-25T09:11:29.405Z,99113.75
2022-12-25T09:16:40.217Z,99113.16
2022-12-25T09:21:57.116Z,99088.00
2022-12-25T09:27:02.266Z,99091.88
2022-12-25T09:32:11.560Z,99063.13
2022-12-25T09:37:17.138Z,99063.81
2022-12-25T09:42:28.702Z,99058.59
2022-12-25T09:47:41.383Z,99063.16
2022-12-25T09:52:52.404Z,99047.88
2022-12-25T09:58:01.002Z,99039.50
2022-12-25T10:03:22.111Z,99031.31
2022-12-25T10:08:40.216Z,99023.66
2022-12-25T10:14:09.740Z,99031.34
2022-12-25T10:19:38.679Z,99037.97
2022-12-25T10:24:48.496Z,99036.34
2022-12-25T10:29:57.594Z,99019.69
2022-12-25T10:35:05.531Z,99018.94
2022-12-25T10:40:31.658Z,99005.97
2022-12-25T10:45:47.760Z,98994.34
2022-12-25T10:50:55.996Z,99022.63
2022-12-25T10:56:03.470Z,99015.72
2022-12-25T11:01:11.008Z,99002.25
2022-12-25T11:06:29.674Z,99006.94
2022-12-25T11:11:44.211Z,98991.75
2022-12-25T11:16:49.821Z,98977.59
2022-12-25T11:21:59.803Z,98982.22
2022-12-25T11:27:08.569Z,99005.13
2022-12-25T11:32:22.490Z,99009.81
2022-12-25T11:37:36.933Z,98980.94
2022-12-25T11:42:45.591Z,98974.84
2022-12-25T11:47:54.940Z,98965.28
2022-12-25T11:53:06.161Z,98951.53
2022-12-25T11:58:21.114Z,98949.50
2022-12-25T12:03:31.531Z,98920.66
2022-12-25T12:08:39.767Z,98914.03
2022-12-25T12:14:00.474Z,98904.53
2022-12-25T12:19:14.083Z,98898.69
2022-12-25T12:24:25.384Z,98881.19
2022-12-25T12:29:32.744Z,98872.66
2022-12-25T12:34:44.445Z,98875.91
2022-12-25T12:39:55.411Z,98879.53
2022-12-25T12:45:10.381Z,98886.84
2022-12-25T12:50:38.047Z,98863.69
2022-12-25T12:55:45.854Z,98830.59
2022-12-25T13:00:58.642Z,98854.16
2022-12-25T13:06:11.825Z,98838.72
2022-12-25T13:11:23.106Z,98813.88
2022-12-25T13:16:32.153Z,98804.22
2022-12-25T13:21:38.586Z,98806.28
2022-12-25T13:26:46.392Z,98822.16
2022-12-25T13:31:51.647Z,98832.22
2022-12-25T13:36:59.007Z,98846.50
2022-12-25T13:42:10.271Z,98855.88
2022-12-25T13:47:25.539Z,98850.63
2022-12-25T13:52:37.224Z,98853.50
2022-12-25T13:57:49.250Z,98840.09
2022-12-25T14:02:55.251Z,98833.50
2022-12-25T14:08:02.022Z,98836.13
2022-12-25T14:13:14.239Z,98827.13
2022-12-25T14:18:20.801Z,98843.31
2022-12-25T14:23:26.308Z,98825.84
2022-12-25T14:28:36.604Z,98823.22
2022-12-25T14:33:43.016Z,98817.00
2022-12-25T14:38:58.036Z,98814.03
2022-12-25T14:44:08.360Z,98801.66
2022-12-25T14:49:26.872Z,98806.13
2022-12-25T14:54:31.811Z,98809.59
2022-12-25T14:59:40.812Z,98795.97
2022-12-25T15:04:49.410Z,98785.81
2022-12-25T15:10:18.417Z,98773.91
2022-12-25T15:15:22.013Z,98780.22
2022-12-25T15:20:35.444Z,98765.41
2022-12-25T15:25:40.414Z,98753.78
2022-12-25T15:30:50.219Z,98746.31
2022-12-25T15:35:57.385Z,98734.69
2022-12-25T15:41:02.817Z,98727.34
2022-12-25T15:46:13.091Z,98728.94
2022-12-25T15:51:18.039Z,98722.03
2022-12-25T15:56:23.771Z,98721.78
2022-12-25T16:01:31.592Z,98717.22
2022-12-25T16:06:36.786Z,98712.97
2022-12-25T16:11:42.444Z,98711.28
2022-12-25T16:16:50.188Z,98712.81
2022-12-25T16:21:57.006Z,98692.88
2022-12-25T16:27:04.149Z,98676.44
2022-12-25T16:32:14.899Z,98675.59
2022-12-25T16:37:20.071Z,98681.06
2022-12-25T16:42:25.299Z,98686.88
2022-12-25T16:47:33.836Z,98680.72
2022-12-25T16:52:41.033Z,98706.28
2022-12-25T16:57:47.777Z,98734.28
2022-12-25T17:02:56.990Z,98705.97
2022-12-25T17:08:02.251Z,98680.25
2022-12-25T17:13:07.514Z,98683.59
2022-12-25T17:18:15.300Z,98663.50
2022-12-25T17:23:20.254Z,98639.75
2022-12-25T17:28:27.577Z,98623.13
2022-12-25T17:33:38.259Z,98604.78
2022-12-25T17:38:43.505Z,98588.81
2022-12-25T17:43:49.702Z,98575.66
2022-12-25T17:48:58.969Z,98588.75
2022-12-25T17:54:05.786Z,98568.16
2022-12-25T17:59:12.194Z,98562.13
2022-12-25T18:04:20.132Z,98550.81
2022-12-25T18:09:25.099Z,98563.19
2022-12-25T18:14:30.163Z,98542.44
2022-12-25T18:19:37.987Z,98539.50
2022-12-25T18:24:43.515Z,98534.28
2022-12-25T18:29:49.262Z,98541.09
2022-12-25T18:35:01.441Z,98531.28
2022-12-25T18:40:07.301Z,98527.13
2022-12-25T18:45:15.647Z,98529.78
2022-12-25T18:50:25.604Z,98518.69
2022-12-25T18:55:31.015Z,98516.25
2022-12-25T19:00:39.067Z,98515.38
2022-12-25T19:05:48.387Z,98533.34
2022-12-25T19:10:55.346Z,98547.00
2022-12-25T19:16:03.188Z,98541.94
2022-12-25T19:21:11.939Z,98542.84
2022-12-25T19:26:19.767Z,98548.78
2022-12-25T19:31:25.307Z,98534.06
2022-12-25T19:36:40.951Z,98519.88
2022-12-25T19:41:46.174Z,98527.38
2022-12-25T19:46:52.521Z,98509.00
2022-12-25T19:52:02.612Z,98522.84
2022-12-25T19:57:08.570Z,98524.44
2022-12-25T20:02:15.267Z,98501.00
2022-12-25T20:07:24.408Z,98509.44
2022-12-25T20:12:31.983Z,98508.38
2022-12-25T20:17:36.922Z,98499.41
2022-12-25T20:22:44.471Z,98488.53
2022-12-25T20:27:49.684Z,98489.91
2022-12-25T20:32:55.506Z,98481.63
2022-12-25T20:38:05.363Z,98490.06
2022-12-25T20:43:11.910Z,98484.19
2022-12-25T20:48:17.391Z,98478.50
2022-12-25T20:53:24.929Z,98476.34
2022-12-25T20:58:31.447Z,98473.41
2022-12-25T21:03:36.792Z,98468.63
2022-12-25T21:08:44.539Z,98466.84
2022-12-25T21:13:49.643Z,98464.53
2022-12-25T21:18:56.205Z,98470.63
2022-12-25T21:24:04.221Z,98467.59
2022-12-25T21:29:12.867Z,98458.47
2022-12-25T21:34:18.077Z,98465.34
2022-12-25T21:39:27.023Z,98460.25
2022-12-25T21:44:32.441Z,98460.53
2022-12-25T21:49:49.847Z,98446.38
2022-12-25T21:54:57.513Z,98430.97
2022-12-25T22:00:06.789Z,98446.72
2022-12-25T22:05:32.122Z,98463.13
2022-12-25T22:10:42.855Z,98467.13
2022-12-25T22:16:00.260Z,98461.94
2022-12-25T22:21:05.873Z,98456.34
2022-12-25T22:26:18.781Z,98461.03
2022-12-25T22:31:26.384Z,98453.41
2022-12-25T22:36:31.906Z,98450.44
2022-12-25T22:41:39.410Z,98443.47
2022-12-25T22:46:44.448Z,98457.41
2022-12-25T22:51:51.249Z,98459.50
2022-12-25T22:57:00.410Z,98457.22
2022-12-25T23:02:07.696Z,98454.97
2022-12-25T23:07:14.662Z,98456.75
2022-12-25T23:12:46.370Z,98458.31
2022-12-25T23:18:03.924Z,98440.13
2022-12-25T23:23:21.267Z,98434.53
2022-12-25T23:28:41.036Z,98439.66
2022-12-25T23:33:49.332Z,98457.63
2022-12-25T23:39:03.046Z,98455.25
2022-12-25T23:44:15.657Z,98447.13
2022-12-25T23:49:20.661Z,98445.75
2022-12-25T23:54:29.956Z,98462.44
2022-12-25T23:59:37.783Z,98459.91
